sensor_id;sensor_type;location;lat;lon;timestamp;temperature;humidity
73570;SHT30;61850;54.980;73.298;2023-03-23T00:00:14;-1.48;76.77
73570;SHT30;61850;54.980;73.298;2023-03-23T00:02:45;-1.48;76.75
73570;SHT30;61850;54.980;73.298;2023-03-23T00:05:21;-1.52;76.58
73570;SHT30;61850;54.980;73.298;2023-03-23T00:07:47;-1.52;76.28
73570;SHT30;61850;54.980;73.298;2023-03-23T00:10:17;-1.54;76.49
73570;SHT30;61850;54.980;73.298;2023-03-23T00:12:50;-1.54;76.50
73570;SHT30;61850;54.980;73.298;2023-03-23T00:15:16;-1.56;76.60
73570;SHT30;61850;54.980;73.298;2023-03-23T00:17:42;-1.71;76.83
73570;SHT30;61850;54.980;73.298;2023-03-23T00:20:27;-1.76;77.13
73570;SHT30;61850;54.980;73.298;2023-03-23T00:22:55;-1.83;77.09
73570;SHT30;61850;54.980;73.298;2023-03-23T00:25:35;-1.89;77.07
73570;SHT30;61850;54.980;73.298;2023-03-23T00:28:13;-1.92;77.07
73570;SHT30;61850;54.980;73.298;2023-03-23T00:30:46;-1.94;76.97
73570;SHT30;61850;54.980;73.298;2023-03-23T00:33:12;-1.99;76.97
73570;SHT30;61850;54.980;73.298;2023-03-23T00:35:44;-2.02;76.94
73570;SHT30;61850;54.980;73.298;2023-03-23T00:38:10;-2.09;77.04
73570;SHT30;61850;54.980;73.298;2023-03-23T00:40:47;-2.13;77.10
73570;SHT30;61850;54.980;73.298;2023-03-23T00:43:15;-2.19;77.02
73570;SHT30;61850;54.980;73.298;2023-03-23T00:45:43;-2.24;77.25
73570;SHT30;61850;54.980;73.298;2023-03-23T00:48:24;-2.27;77.21
73570;SHT30;61850;54.980;73.298;2023-03-23T00:50:51;-2.36;77.36
73570;SHT30;61850;54.980;73.298;2023-03-23T00:53:19;-2.37;77.37
73570;SHT30;61850;54.980;73.298;2023-03-23T00:55:55;-2.43;77.32
73570;SHT30;61850;54.980;73.298;2023-03-23T00:58:27;-2.44;77.40
73570;SHT30;61850;54.980;73.298;2023-03-23T01:00:58;-2.47;77.55
73570;SHT30;61850;54.980;73.298;2023-03-23T01:03:31;-2.48;77.42
73570;SHT30;61850;54.980;73.298;2023-03-23T01:06:03;-2.51;77.30
73570;SHT30;61850;54.980;73.298;2023-03-23T01:08:36;-2.51;77.28
73570;SHT30;61850;54.980;73.298;2023-03-23T01:11:14;-2.58;77.19
73570;SHT30;61850;54.980;73.298;2023-03-23T01:13:42;-2.62;76.92
73570;SHT30;61850;54.980;73.298;2023-03-23T01:16:18;-2.61;76.83
73570;SHT30;61850;54.980;73.298;2023-03-23T01:18:56;-2.65;76.67
73570;SHT30;61850;54.980;73.298;2023-03-23T01:21:26;-2.64;76.44
73570;SHT30;61850;54.980;73.298;2023-03-23T01:23:53;-2.68;76.35
73570;SHT30;61850;54.980;73.298;2023-03-23T01:26:23;-2.69;76.13
73570;SHT30;61850;54.980;73.298;2023-03-23T01:28:55;-2.64;75.89
73570;SHT30;61850;54.980;73.298;2023-03-23T01:31:28;-2.65;75.66
73570;SHT30;61850;54.980;73.298;2023-03-23T01:34:05;-2.60;75.29
73570;SHT30;61850;54.980;73.298;2023-03-23T01:36:32;-2.61;75.05
73570;SHT30;61850;54.980;73.298;2023-03-23T01:39:02;-2.58;75.04
73570;SHT30;61850;54.980;73.298;2023-03-23T01:41:30;-2.60;74.67
73570;SHT30;61850;54.980;73.298;2023-03-23T01:44:05;-2.60;74.53
73570;SHT30;61850;54.980;73.298;2023-03-23T01:46:53;-2.55;74.96
73570;SHT30;61850;54.980;73.298;2023-03-23T01:49:24;-2.47;74.32
73570;SHT30;61850;54.980;73.298;2023-03-23T01:51:55;-2.41;74.06
73570;SHT30;61850;54.980;73.298;2023-03-23T01:54:33;-2.43;73.74
73570;SHT30;61850;54.980;73.298;2023-03-23T01:57:15;-2.33;73.65
73570;SHT30;61850;54.980;73.298;2023-03-23T01:59:43;-2.38;73.52
73570;SHT30;61850;54.980;73.298;2023-03-23T02:02:23;-2.30;73.10
73570;SHT30;61850;54.980;73.298;2023-03-23T02:04:59;-2.24;73.01
73570;SHT30;61850;54.980;73.298;2023-03-23T02:07:34;-2.17;72.89
73570;SHT30;61850;54.980;73.298;2023-03-23T02:10:02;-2.19;72.77
73570;SHT30;61850;54.980;73.298;2023-03-23T02:12:34;-2.20;73.05
73570;SHT30;61850;54.980;73.298;2023-03-23T02:15:02;-2.15;72.91
73570;SHT30;61850;54.980;73.298;2023-03-23T02:20:32;-2.09;72.59
73570;SHT30;61850;54.980;73.298;2023-03-23T02:36:39;-1.43;70.56
73570;SHT30;61850;54.980;73.298;2023-03-23T02:39:11;-1.31;69.88
73570;SHT30;61850;54.980;73.298;2023-03-23T02:42:01;-1.01;69.58
73570;SHT30;61850;54.980;73.298;2023-03-23T02:44:30;-0.93;69.10
73570;SHT30;61850;54.980;73.298;2023-03-23T02:46:58;-0.90;69.31
73570;SHT30;61850;54.980;73.298;2023-03-23T02:49:33;-0.80;69.10
73570;SHT30;61850;54.980;73.298;2023-03-23T02:52:09;-0.69;68.79
73570;SHT30;61850;54.980;73.298;2023-03-23T02:54:38;-0.66;68.56
73570;SHT30;61850;54.980;73.298;2023-03-23T02:57:10;-0.68;68.74
73570;SHT30;61850;54.980;73.298;2023-03-23T02:59:55;-0.69;68.84
73570;SHT30;61850;54.980;73.298;2023-03-23T03:02:30;-0.61;69.07
73570;SHT30;61850;54.980;73.298;2023-03-23T03:07:59;-0.37;69.19
73570;SHT30;61850;54.980;73.298;2023-03-23T03:10:32;-0.35;69.21
73570;SHT30;61850;54.980;73.298;2023-03-23T03:13:06;-0.35;69.27
73570;SHT30;61850;54.980;73.298;2023-03-23T03:18:18;-0.27;69.72
73570;SHT30;61850;54.980;73.298;2023-03-23T03:21:00;-0.14;69.72
73570;SHT30;61850;54.980;73.298;2023-03-23T03:23:33;-0.07;69.94
73570;SHT30;61850;54.980;73.298;2023-03-23T03:26:03;-0.06;70.42
73570;SHT30;61850;54.980;73.298;2023-03-23T03:28:48;0.09;70.58
73570;SHT30;61850;54.980;73.298;2023-03-23T03:31:19;0.17;70.44
73570;SHT30;61850;54.980;73.298;2023-03-23T03:33:47;0.10;71.22
73570;SHT30;61850;54.980;73.298;2023-03-23T03:36:21;0.14;71.50
73570;SHT30;61850;54.980;73.298;2023-03-23T03:38:49;0.09;71.65
73570;SHT30;61850;54.980;73.298;2023-03-23T03:41:17;0.13;71.82
73570;SHT30;61850;54.980;73.298;2023-03-23T03:43:45;0.14;72.23
73570;SHT30;61850;54.980;73.298;2023-03-23T03:46:12;0.13;72.27
73570;SHT30;61850;54.980;73.298;2023-03-23T03:48:39;0.17;72.47
73570;SHT30;61850;54.980;73.298;2023-03-23T03:51:10;0.25;72.55
73570;SHT30;61850;54.980;73.298;2023-03-23T03:53:41;0.28;72.31
73570;SHT30;61850;54.980;73.298;2023-03-23T03:56:08;0.24;72.25
73570;SHT30;61850;54.980;73.298;2023-03-23T03:58:46;0.23;72.30
73570;SHT30;61850;54.980;73.298;2023-03-23T04:01:45;0.24;72.66
73570;SHT30;61850;54.980;73.298;2023-03-23T04:04:12;0.38;72.60
73570;SHT30;61850;54.980;73.298;2023-03-23T04:06:38;0.31;72.85
73570;SHT30;61850;54.980;73.298;2023-03-23T04:09:05;0.28;72.98
73570;SHT30;61850;54.980;73.298;2023-03-23T04:11:33;0.25;73.41
73570;SHT30;61850;54.980;73.298;2023-03-23T04:14:20;0.25;73.79
73570;SHT30;61850;54.980;73.298;2023-03-23T04:16:51;0.36;73.60
73570;SHT30;61850;54.980;73.298;2023-03-23T04:19:23;0.28;73.66
73570;SHT30;61850;54.980;73.298;2023-03-23T04:21:54;0.27;73.82
73570;SHT30;61850;54.980;73.298;2023-03-23T04:24:22;0.34;74.25
73570;SHT30;61850;54.980;73.298;2023-03-23T04:26:51;0.27;74.20
73570;SHT30;61850;54.980;73.298;2023-03-23T04:29:32;0.34;74.50
73570;SHT30;61850;54.980;73.298;2023-03-23T04:32:35;0.25;75.00
73570;SHT30;61850;54.980;73.298;2023-03-23T04:35:06;0.28;75.28
73570;SHT30;61850;54.980;73.298;2023-03-23T04:37:44;0.27;75.52
73570;SHT30;61850;54.980;73.298;2023-03-23T04:40:15;0.25;75.66
73570;SHT30;61850;54.980;73.298;2023-03-23T04:42:49;0.24;75.94
73570;SHT30;61850;54.980;73.298;2023-03-23T04:45:44;0.27;76.38
73570;SHT30;61850;54.980;73.298;2023-03-23T04:48:21;0.24;77.74
73570;SHT30;61850;54.980;73.298;2023-03-23T04:51:00;0.18;78.77
73570;SHT30;61850;54.980;73.298;2023-03-23T04:53:29;-0.03;80.75
73570;SHT30;61850;54.980;73.298;2023-03-23T04:55:59;-0.24;82.28
73570;SHT30;61850;54.980;73.298;2023-03-23T04:58:32;-0.21;83.38
73570;SHT30;61850;54.980;73.298;2023-03-23T05:01:21;-0.39;84.38
73570;SHT30;61850;54.980;73.298;2023-03-23T05:04:13;-0.49;85.05
73570;SHT30;61850;54.980;73.298;2023-03-23T05:06:57;-0.48;85.86
73570;SHT30;61850;54.980;73.298;2023-03-23T05:09:29;-0.56;86.40
73570;SHT30;61850;54.980;73.298;2023-03-23T05:12:06;-0.45;87.04
73570;SHT30;61850;54.980;73.298;2023-03-23T05:14:42;-0.49;87.63
73570;SHT30;61850;54.980;73.298;2023-03-23T05:17:18;-0.49;88.81
73570;SHT30;61850;54.980;73.298;2023-03-23T05:19:53;-0.41;88.92
73570;SHT30;61850;54.980;73.298;2023-03-23T05:22:51;-0.54;89.61
73570;SHT30;61850;54.980;73.298;2023-03-23T05:25:23;-0.39;90.16
73570;SHT30;61850;54.980;73.298;2023-03-23T05:28:00;-0.31;90.10
73570;SHT30;61850;54.980;73.298;2023-03-23T05:30:49;-0.17;90.29
73570;SHT30;61850;54.980;73.298;2023-03-23T05:33:17;-0.11;90.26
73570;SHT30;61850;54.980;73.298;2023-03-23T05:36:04;-0.17;90.26
73570;SHT30;61850;54.980;73.298;2023-03-23T05:38:54;-0.17;90.68
73570;SHT30;61850;54.980;73.298;2023-03-23T05:41:28;-0.24;90.49
73570;SHT30;61850;54.980;73.298;2023-03-23T05:43:55;0.03;90.30
73570;SHT30;61850;54.980;73.298;2023-03-23T05:46:50;0.11;89.59
73570;SHT30;61850;54.980;73.298;2023-03-23T05:49:16;0.30;89.02
73570;SHT30;61850;54.980;73.298;2023-03-23T05:51:48;0.41;88.62
73570;SHT30;61850;54.980;73.298;2023-03-23T05:54:19;0.37;88.45
73570;SHT30;61850;54.980;73.298;2023-03-23T05:56:52;0.42;88.21
73570;SHT30;61850;54.980;73.298;2023-03-23T05:59:46;0.42;88.26
73570;SHT30;61850;54.980;73.298;2023-03-23T06:02:19;0.58;87.99
73570;SHT30;61850;54.980;73.298;2023-03-23T06:04:45;0.73;87.45
73570;SHT30;61850;54.980;73.298;2023-03-23T06:07:30;0.93;86.43
73570;SHT30;61850;54.980;73.298;2023-03-23T06:10:11;0.97;86.73
73570;SHT30;61850;54.980;73.298;2023-03-23T06:12:39;0.97;87.68
73570;SHT30;61850;54.980;73.298;2023-03-23T06:15:23;1.09;85.56
73570;SHT30;61850;54.980;73.298;2023-03-23T06:18:17;1.33;85.29
73570;SHT30;61850;54.980;73.298;2023-03-23T06:21:11;1.40;85.16
73570;SHT30;61850;54.980;73.298;2023-03-23T06:24:07;1.38;84.81
73570;SHT30;61850;54.980;73.298;2023-03-23T06:26:36;1.65;84.28
73570;SHT30;61850;54.980;73.298;2023-03-23T06:29:10;1.62;84.16
73570;SHT30;61850;54.980;73.298;2023-03-23T06:31:50;1.61;84.56
73570;SHT30;61850;54.980;73.298;2023-03-23T06:34:17;1.77;84.18
73570;SHT30;61850;54.980;73.298;2023-03-23T06:37:02;2.29;82.53
73570;SHT30;61850;54.980;73.298;2023-03-23T06:39:34;2.30;82.39
73570;SHT30;61850;54.980;73.298;2023-03-23T06:42:25;2.56;82.09
73570;SHT30;61850;54.980;73.298;2023-03-23T06:45:11;2.67;81.42
73570;SHT30;61850;54.980;73.298;2023-03-23T06:47:37;2.92;81.11
73570;SHT30;61850;54.980;73.298;2023-03-23T06:50:04;2.80;80.45
73570;SHT30;61850;54.980;73.298;2023-03-23T06:52:32;2.96;80.04
73570;SHT30;61850;54.980;73.298;2023-03-23T06:55:01;2.87;80.46
73570;SHT30;61850;54.980;73.298;2023-03-23T06:57:32;3.19;79.53
73570;SHT30;61850;54.980;73.298;2023-03-23T06:59:58;3.01;79.94
73570;SHT30;61850;54.980;73.298;2023-03-23T07:02:30;2.92;80.07
73570;SHT30;61850;54.980;73.298;2023-03-23T07:05:00;3.01;80.89
73570;SHT30;61850;54.980;73.298;2023-03-23T07:07:27;2.89;80.59
73570;SHT30;61850;54.980;73.298;2023-03-23T07:10:08;2.99;80.77
73570;SHT30;61850;54.980;73.298;2023-03-23T07:12:40;3.16;80.16
73570;SHT30;61850;54.980;73.298;2023-03-23T07:15:09;3.23;80.18
73570;SHT30;61850;54.980;73.298;2023-03-23T07:17:38;3.25;80.36
73570;SHT30;61850;54.980;73.298;2023-03-23T07:20:17;3.42;80.08
73570;SHT30;61850;54.980;73.298;2023-03-23T07:22:44;3.20;79.71
73570;SHT30;61850;54.980;73.298;2023-03-23T07:25:21;3.06;80.44
73570;SHT30;61850;54.980;73.298;2023-03-23T07:27:51;2.98;80.80
73570;SHT30;61850;54.980;73.298;2023-03-23T07:30:17;3.01;81.07
73570;SHT30;61850;54.980;73.298;2023-03-23T07:32:43;2.99;81.11
73570;SHT30;61850;54.980;73.298;2023-03-23T07:35:11;3.08;80.93
73570;SHT30;61850;54.980;73.298;2023-03-23T07:37:56;3.18;80.31
73570;SHT30;61850;54.980;73.298;2023-03-23T07:40:23;3.46;80.01
73570;SHT30;61850;54.980;73.298;2023-03-23T07:42:55;3.47;79.31
73570;SHT30;61850;54.980;73.298;2023-03-23T07:45:50;3.43;79.60
73570;SHT30;61850;54.980;73.298;2023-03-23T07:48:17;3.27;80.07
73570;SHT30;61850;54.980;73.298;2023-03-23T07:50:44;3.23;80.09
73570;SHT30;61850;54.980;73.298;2023-03-23T07:53:12;3.13;80.24
73570;SHT30;61850;54.980;73.298;2023-03-23T07:55:40;3.35;80.02
73570;SHT30;61850;54.980;73.298;2023-03-23T07:58:33;3.56;79.42
73570;SHT30;61850;54.980;73.298;2023-03-23T08:00:59;3.44;79.72
73570;SHT30;61850;54.980;73.298;2023-03-23T08:03:41;3.44;79.56
73570;SHT30;61850;54.980;73.298;2023-03-23T08:06:37;3.40;79.67
73570;SHT30;61850;54.980;73.298;2023-03-23T08:09:47;3.52;79.32
73570;SHT30;61850;54.980;73.298;2023-03-23T08:12:31;3.64;78.79
73570;SHT30;61850;54.980;73.298;2023-03-23T08:15:17;3.75;78.19
73570;SHT30;61850;54.980;73.298;2023-03-23T08:18:04;4.08;76.28
73570;SHT30;61850;54.980;73.298;2023-03-23T08:20:49;4.22;74.87
73570;SHT30;61850;54.980;73.298;2023-03-23T08:23:50;4.19;74.49
73570;SHT30;61850;54.980;73.298;2023-03-23T08:26:22;4.14;74.01
73570;SHT30;61850;54.980;73.298;2023-03-23T08:29:20;4.28;73.23
73570;SHT30;61850;54.980;73.298;2023-03-23T08:31:46;4.26;73.37
73570;SHT30;61850;54.980;73.298;2023-03-23T08:34:29;4.41;73.05
73570;SHT30;61850;54.980;73.298;2023-03-23T08:37:26;4.48;72.39
73570;SHT30;61850;54.980;73.298;2023-03-23T08:40:15;4.57;71.49
73570;SHT30;61850;54.980;73.298;2023-03-23T08:43:10;4.90;70.26
73570;SHT30;61850;54.980;73.298;2023-03-23T08:45:57;5.48;68.57
73570;SHT30;61850;54.980;73.298;2023-03-23T08:48:59;6.00;66.71
73570;SHT30;61850;54.980;73.298;2023-03-23T08:51:33;6.50;65.34
73570;SHT30;61850;54.980;73.298;2023-03-23T08:54:21;7.00;64.08
73570;SHT30;61850;54.980;73.298;2023-03-23T08:57:07;7.20;63.46
73570;SHT30;61850;54.980;73.298;2023-03-23T09:00:03;7.37;61.85
73570;SHT30;61850;54.980;73.298;2023-03-23T09:03:02;7.71;61.11
73570;SHT30;61850;54.980;73.298;2023-03-23T09:05:41;7.85;59.91
73570;SHT30;61850;54.980;73.298;2023-03-23T09:08:38;7.94;59.04
73570;SHT30;61850;54.980;73.298;2023-03-23T09:11:15;8.57;58.60
73570;SHT30;61850;54.980;73.298;2023-03-23T09:13:41;8.40;57.92
73570;SHT30;61850;54.980;73.298;2023-03-23T09:16:09;8.67;57.39
73570;SHT30;61850;54.980;73.298;2023-03-23T09:18:35;8.86;56.21
73570;SHT30;61850;54.980;73.298;2023-03-23T09:21:19;8.31;56.28
73570;SHT30;61850;54.980;73.298;2023-03-23T09:23:47;8.33;56.44
73570;SHT30;61850;54.980;73.298;2023-03-23T09:26:14;8.07;56.41
73570;SHT30;61850;54.980;73.298;2023-03-23T09:28:41;8.23;56.69
73570;SHT30;61850;54.980;73.298;2023-03-23T09:31:11;8.12;56.81
73570;SHT30;61850;54.980;73.298;2023-03-23T09:33:38;7.69;56.33
73570;SHT30;61850;54.980;73.298;2023-03-23T09:36:06;8.23;56.11
73570;SHT30;61850;54.980;73.298;2023-03-23T09:38:34;8.81;55.53
73570;SHT30;61850;54.980;73.298;2023-03-23T09:41:07;8.75;54.59
73570;SHT30;61850;54.980;73.298;2023-03-23T09:46:33;8.81;53.72
73570;SHT30;61850;54.980;73.298;2023-03-23T09:49:13;8.58;53.78
73570;SHT30;61850;54.980;73.298;2023-03-23T09:51:44;8.22;54.13
73570;SHT30;61850;54.980;73.298;2023-03-23T09:54:17;8.88;53.26
73570;SHT30;61850;54.980;73.298;2023-03-23T09:56:45;9.26;52.22
73570;SHT30;61850;54.980;73.298;2023-03-23T10:01:59;9.39;51.71
73570;SHT30;61850;54.980;73.298;2023-03-23T10:04:48;9.27;51.37
73570;SHT30;61850;54.980;73.298;2023-03-23T10:07:26;9.26;50.64
73570;SHT30;61850;54.980;73.298;2023-03-23T10:10:02;9.47;50.19
73570;SHT30;61850;54.980;73.298;2023-03-23T10:12:42;9.51;50.22
73570;SHT30;61850;54.980;73.298;2023-03-23T10:15:16;9.48;48.95
73570;SHT30;61850;54.980;73.298;2023-03-23T10:18:30;9.19;49.58
73570;SHT30;61850;54.980;73.298;2023-03-23T10:20:58;9.23;49.76
73570;SHT30;61850;54.980;73.298;2023-03-23T10:25:52;8.85;49.68
73570;SHT30;61850;54.980;73.298;2023-03-23T10:28:34;8.60;49.19
73570;SHT30;61850;54.980;73.298;2023-03-23T10:31:01;8.79;49.44
73570;SHT30;61850;54.980;73.298;2023-03-23T10:33:38;8.92;49.60
73570;SHT30;61850;54.980;73.298;2023-03-23T10:38:42;8.37;50.43
73570;SHT30;61850;54.980;73.298;2023-03-23T10:41:12;7.56;51.81
73570;SHT30;61850;54.980;73.298;2023-03-23T10:43:39;7.55;52.84
73570;SHT30;61850;54.980;73.298;2023-03-23T10:46:13;6.96;54.29
73570;SHT30;61850;54.980;73.298;2023-03-23T10:48:45;6.62;55.54
73570;SHT30;61850;54.980;73.298;2023-03-23T10:51:16;6.38;55.83
73570;SHT30;61850;54.980;73.298;2023-03-23T10:53:50;6.53;55.53
73570;SHT30;61850;54.980;73.298;2023-03-23T10:58:53;5.80;57.49
73570;SHT30;61850;54.980;73.298;2023-03-23T11:01:31;6.34;56.88
73570;SHT30;61850;54.980;73.298;2023-03-23T11:03:57;7.03;54.25
73570;SHT30;61850;54.980;73.298;2023-03-23T11:06:27;6.92;53.67
73570;SHT30;61850;54.980;73.298;2023-03-23T11:09:09;6.66;54.50
73570;SHT30;61850;54.980;73.298;2023-03-23T11:11:37;6.03;55.18
73570;SHT30;61850;54.980;73.298;2023-03-23T11:14:17;6.10;55.08
73570;SHT30;61850;54.980;73.298;2023-03-23T11:16:59;5.66;55.76
73570;SHT30;61850;54.980;73.298;2023-03-23T11:19:37;5.91;55.99
73570;SHT30;61850;54.980;73.298;2023-03-23T11:22:25;5.91;54.63
73570;SHT30;61850;54.980;73.298;2023-03-23T11:24:53;5.48;55.91
73570;SHT30;61850;54.980;73.298;2023-03-23T11:27:31;5.22;56.50
73570;SHT30;61850;54.980;73.298;2023-03-23T11:30:01;5.36;56.50
73570;SHT30;61850;54.980;73.298;2023-03-23T11:32:35;5.32;56.37
73570;SHT30;61850;54.980;73.298;2023-03-23T11:35:06;5.19;56.24
73570;SHT30;61850;54.980;73.298;2023-03-23T11:37:41;5.14;56.22
73570;SHT30;61850;54.980;73.298;2023-03-23T11:45:25;5.10;56.13
73570;SHT30;61850;54.980;73.298;2023-03-23T11:50:26;4.77;56.43
73570;SHT30;61850;54.980;73.298;2023-03-23T11:53:01;4.79;56.57
73570;SHT30;61850;54.980;73.298;2023-03-23T11:55:35;4.79;56.56
73570;SHT30;61850;54.980;73.298;2023-03-23T11:58:10;4.79;56.51
73570;SHT30;61850;54.980;73.298;2023-03-23T12:01:05;4.69;56.53
73570;SHT30;61850;54.980;73.298;2023-03-23T12:06:32;4.57;57.27
73570;SHT30;61850;54.980;73.298;2023-03-23T12:12:04;4.57;57.76
73570;SHT30;61850;54.980;73.298;2023-03-23T12:15:30;4.62;57.78
73570;SHT30;61850;54.980;73.298;2023-03-23T12:36:43;3.75;61.83
73570;SHT30;61850;54.980;73.298;2023-03-23T12:41:51;3.59;62.80
73570;SHT30;61850;54.980;73.298;2023-03-23T12:44:38;3.42;62.99
73570;SHT30;61850;54.980;73.298;2023-03-23T12:49:54;3.23;63.81
73570;SHT30;61850;54.980;73.298;2023-03-23T13:04:50;2.88;65.12
73570;SHT30;61850;54.980;73.298;2023-03-23T13:07:21;2.87;65.67
73570;SHT30;61850;54.980;73.298;2023-03-23T13:09:54;2.75;66.45
73570;SHT30;61850;54.980;73.298;2023-03-23T13:12:22;2.64;66.44
73570;SHT30;61850;54.980;73.298;2023-03-23T13:23:11;2.09;68.72
73570;SHT30;61850;54.980;73.298;2023-03-23T13:29:12;1.86;69.67
73570;SHT30;61850;54.980;73.298;2023-03-23T13:31:13;1.78;70.01
73570;SHT30;61850;54.980;73.298;2023-03-23T13:33:49;1.75;70.35
73570;SHT30;61850;54.980;73.298;2023-03-23T13:36:17;1.71;70.55
73570;SHT30;61850;54.980;73.298;2023-03-23T13:38:45;1.68;70.66
73570;SHT30;61850;54.980;73.298;2023-03-23T13:41:14;1.61;71.03
73570;SHT30;61850;54.980;73.298;2023-03-23T13:43:41;1.59;71.13
73570;SHT30;61850;54.980;73.298;2023-03-23T13:46:23;1.52;71.28
73570;SHT30;61850;54.980;73.298;2023-03-23T13:49:15;1.51;71.48
73570;SHT30;61850;54.980;73.298;2023-03-23T13:59:28;1.47;71.27
73570;SHT30;61850;54.980;73.298;2023-03-23T14:01:56;1.50;71.17
73570;SHT30;61850;54.980;73.298;2023-03-23T14:04:29;1.48;71.12
73570;SHT30;61850;54.980;73.298;2023-03-23T14:06:56;1.48;71.03
73570;SHT30;61850;54.980;73.298;2023-03-23T14:09:33;1.51;71.11
73570;SHT30;61850;54.980;73.298;2023-03-23T14:12:01;1.51;71.10
73570;SHT30;61850;54.980;73.298;2023-03-23T14:14:39;1.48;71.03
73570;SHT30;61850;54.980;73.298;2023-03-23T14:17:10;1.52;70.78
73570;SHT30;61850;54.980;73.298;2023-03-23T14:19:54;1.55;70.72
73570;SHT30;61850;54.980;73.298;2023-03-23T14:22:35;1.57;70.62
73570;SHT30;61850;54.980;73.298;2023-03-23T14:25:02;1.58;70.49
73570;SHT30;61850;54.980;73.298;2023-03-23T14:27:34;1.65;70.50
73570;SHT30;61850;54.980;73.298;2023-03-23T14:30:03;1.58;70.30
73570;SHT30;61850;54.980;73.298;2023-03-23T14:32:30;1.64;70.15
73570;SHT30;61850;54.980;73.298;2023-03-23T14:34:58;1.57;70.22
73570;SHT30;61850;54.980;73.298;2023-03-23T14:37:25;1.54;70.20
73570;SHT30;61850;54.980;73.298;2023-03-23T14:40:02;1.57;70.15
73570;SHT30;61850;54.980;73.298;2023-03-23T14:42:32;1.52;70.24
73570;SHT30;61850;54.980;73.298;2023-03-23T14:44:59;1.54;70.15
73570;SHT30;61850;54.980;73.298;2023-03-23T14:47:29;1.50;69.98
73570;SHT30;61850;54.980;73.298;2023-03-23T14:50:03;1.54;70.05
73570;SHT30;61850;54.980;73.298;2023-03-23T14:52:34;1.51;70.04
73570;SHT30;61850;54.980;73.298;2023-03-23T14:55:17;1.54;69.96
73570;SHT30;61850;54.980;73.298;2023-03-23T14:57:43;1.55;70.07
73570;SHT30;61850;54.980;73.298;2023-03-23T15:00:14;1.55;70.16
73570;SHT30;61850;54.980;73.298;2023-03-23T15:02:44;1.51;70.16
73570;SHT30;61850;54.980;73.298;2023-03-23T15:05:13;1.54;70.31
73570;SHT30;61850;54.980;73.298;2023-03-23T15:07:41;1.52;70.42
73570;SHT30;61850;54.980;73.298;2023-03-23T15:10:08;1.51;70.52
73570;SHT30;61850;54.980;73.298;2023-03-23T15:12:37;1.51;70.49
73570;SHT30;61850;54.980;73.298;2023-03-23T15:15:07;1.48;70.77
73570;SHT30;61850;54.980;73.298;2023-03-23T15:17:52;1.46;70.72
73570;SHT30;61850;54.980;73.298;2023-03-23T15:23:22;1.36;70.92
73570;SHT30;61850;54.980;73.298;2023-03-23T15:25:50;1.34;70.83
73570;SHT30;61850;54.980;73.298;2023-03-23T15:28:18;1.29;71.06
73570;SHT30;61850;54.980;73.298;2023-03-23T15:33:15;1.22;71.19
73570;SHT30;61850;54.980;73.298;2023-03-23T15:35:45;1.22;71.41
73570;SHT30;61850;54.980;73.298;2023-03-23T15:38:31;1.16;71.54
73570;SHT30;61850;54.980;73.298;2023-03-23T15:40:59;1.10;71.53
73570;SHT30;61850;54.980;73.298;2023-03-23T15:43:31;1.04;71.58
73570;SHT30;61850;54.980;73.298;2023-03-23T15:51:21;0.92;72.02
73570;SHT30;61850;54.980;73.298;2023-03-23T15:53:48;0.93;71.97
73570;SHT30;61850;54.980;73.298;2023-03-23T15:56:15;0.92;72.03
73570;SHT30;61850;54.980;73.298;2023-03-23T15:58:48;0.88;72.15
73570;SHT30;61850;54.980;73.298;2023-03-23T16:01:15;0.86;72.25
73570;SHT30;61850;54.980;73.298;2023-03-23T16:03:47;0.85;72.26
73570;SHT30;61850;54.980;73.298;2023-03-23T16:06:16;0.82;72.27
73570;SHT30;61850;54.980;73.298;2023-03-23T16:08:43;0.82;72.27
73570;SHT30;61850;54.980;73.298;2023-03-23T16:11:14;0.79;72.43
73570;SHT30;61850;54.980;73.298;2023-03-23T16:13:41;0.78;72.41
73570;SHT30;61850;54.980;73.298;2023-03-23T16:16:22;0.73;72.49
73570;SHT30;61850;54.980;73.298;2023-03-23T16:18:55;0.71;72.67
73570;SHT30;61850;54.980;73.298;2023-03-23T16:21:22;0.66;72.80
73570;SHT30;61850;54.980;73.298;2023-03-23T16:23:48;0.66;72.80
73570;SHT30;61850;54.980;73.298;2023-03-23T16:26:17;0.66;72.87
73570;SHT30;61850;54.980;73.298;2023-03-23T16:28:43;0.66;73.05
73570;SHT30;61850;54.980;73.298;2023-03-23T16:31:10;0.64;73.19
73570;SHT30;61850;54.980;73.298;2023-03-23T16:33:36;0.61;73.24
73570;SHT30;61850;54.980;73.298;2023-03-23T16:36:02;0.60;73.32
73570;SHT30;61850;54.980;73.298;2023-03-23T16:38:34;0.57;73.48
73570;SHT30;61850;54.980;73.298;2023-03-23T16:41:01;0.54;73.77
73570;SHT30;61850;54.980;73.298;2023-03-23T16:43:28;0.50;73.97
73570;SHT30;61850;54.980;73.298;2023-03-23T16:45:54;0.47;74.20
73570;SHT30;61850;54.980;73.298;2023-03-23T16:51:17;0.32;74.58
73570;SHT30;61850;54.980;73.298;2023-03-23T16:53:43;0.27;74.82
73570;SHT30;61850;54.980;73.298;2023-03-23T16:56:09;0.25;74.93
73570;SHT30;61850;54.980;73.298;2023-03-23T16:58:41;0.21;75.03
73570;SHT30;61850;54.980;73.298;2023-03-23T17:01:08;0.18;75.12
73570;SHT30;61850;54.980;73.298;2023-03-23T17:03:34;0.17;75.15
73570;SHT30;61850;54.980;73.298;2023-03-23T17:06:00;0.13;75.30
73570;SHT30;61850;54.980;73.298;2023-03-23T17:08:31;0.09;75.35
73570;SHT30;61850;54.980;73.298;2023-03-23T17:10:57;0.04;75.44
73570;SHT30;61850;54.980;73.298;2023-03-23T17:13:23;0.02;75.65
73570;SHT30;61850;54.980;73.298;2023-03-23T17:15:52;-0.04;75.79
73570;SHT30;61850;54.980;73.298;2023-03-23T17:18:20;-0.14;76.06
73570;SHT30;61850;54.980;73.298;2023-03-23T17:20:46;-0.17;76.20
73570;SHT30;61850;54.980;73.298;2023-03-23T17:23:12;-0.18;76.29
73570;SHT30;61850;54.980;73.298;2023-03-23T17:25:38;-0.24;76.38
73570;SHT30;61850;54.980;73.298;2023-03-23T17:28:04;-0.29;76.53
73570;SHT30;61850;54.980;73.298;2023-03-23T17:30:31;-0.32;76.57
73570;SHT30;61850;54.980;73.298;2023-03-23T17:32:57;-0.35;76.69
73570;SHT30;61850;54.980;73.298;2023-03-23T17:35:23;-0.38;76.75
73570;SHT30;61850;54.980;73.298;2023-03-23T17:37:58;-0.45;76.92
73570;SHT30;61850;54.980;73.298;2023-03-23T17:40:25;-0.48;76.82
73570;SHT30;61850;54.980;73.298;2023-03-23T17:42:57;-0.51;76.98
73570;SHT30;61850;54.980;73.298;2023-03-23T17:45:23;-0.56;77.05
73570;SHT30;61850;54.980;73.298;2023-03-23T17:47:51;-0.59;77.22
73570;SHT30;61850;54.980;73.298;2023-03-23T17:50:22;-0.65;77.35
73570;SHT30;61850;54.980;73.298;2023-03-23T17:52:48;-0.64;77.19
73570;SHT30;61850;54.980;73.298;2023-03-23T17:55:24;-0.66;77.22
73570;SHT30;61850;54.980;73.298;2023-03-23T17:57:56;-0.69;77.30
73570;SHT30;61850;54.980;73.298;2023-03-23T18:00:31;-0.69;77.15
73570;SHT30;61850;54.980;73.298;2023-03-23T18:02:57;-0.66;77.09
73570;SHT30;61850;54.980;73.298;2023-03-23T18:05:23;-0.66;77.03
73570;SHT30;61850;54.980;73.298;2023-03-23T18:08:02;-0.65;77.04